Time;durP1;ratioP1;P1;durP2;ratioP2;P2;SDS_P1;SDS_P2;PMS_P1;PMS_P2;Temp;Humidity;BMP_temperature;BMP_pressure;BME280_temperature;BME280_humidity;BME280_pressure;Samples;Min_cycle;Max_cycle;Signal;HPM_P1;HPM_P2
2022/06/11 00:01:28;;;;;;;6.85;4.65;;;20.70;99.90;;;;;;6196072;23;20009;-93
2022/06/11 00:03:59;;;;;;;7.35;4.90;;;20.70;99.90;;;;;;6195431;23;20026;-93
2022/06/11 00:06:29;;;;;;;6.72;4.78;;;20.70;99.90;;;;;;6195272;23;20008;-91
2022/06/11 00:08:57;;;;;;;6.53;5.03;;;20.70;99.90;;;;;;6195671;23;20015;-93
2022/06/11 00:11:24;;;;;;;8.57;4.50;;;20.70;99.90;;;;;;6195541;23;20011;-93
2022/06/11 00:13:53;;;;;;;10.25;5.20;;;20.70;99.90;;;;;;6195821;23;20079;-94
2022/06/11 00:16:23;;;;;;;8.00;5.25;;;20.60;99.90;;;;;;6195575;23;20008;-94
2022/06/11 00:18:53;;;;;;;6.28;4.85;;;20.70;99.90;;;;;;6195565;23;20058;-93
2022/06/11 00:21:21;;;;;;;8.80;4.75;;;20.60;99.90;;;;;;6195409;23;20357;-93
2022/06/11 00:23:47;;;;;;;9.32;5.07;;;20.60;99.90;;;;;;6183820;23;20442;-93
2022/06/11 00:26:14;;;;;;;7.68;4.85;;;20.60;99.90;;;;;;6165403;23;20067;-92
2022/06/11 00:28:42;;;;;;;9.90;5.30;;;20.50;99.90;;;;;;6165948;23;20316;-93
2022/06/11 00:31:10;;;;;;;7.82;5.45;;;20.50;99.90;;;;;;6165835;23;20028;-93
2022/06/11 00:33:38;;;;;;;12.05;6.13;;;20.50;99.90;;;;;;6165903;23;20087;-92
2022/06/11 00:36:06;;;;;;;8.77;4.80;;;20.50;99.90;;;;;;6166209;23;20100;-93
2022/06/11 00:38:34;;;;;;;9.32;5.55;;;20.50;99.90;;;;;;6165385;23;20431;-93
2022/06/11 00:41:00;;;;;;;11.65;5.72;;;20.50;99.90;;;;;;6165706;23;20540;-92
2022/06/11 00:43:28;;;;;;;8.18;6.10;;;20.50;99.90;;;;;;6165439;23;20020;-93
2022/06/11 00:46:42;;;;;;;12.32;5.75;;;20.50;99.90;;;;;;6165586;23;20013;-93
2022/06/11 00:49:51;;;;;;;12.60;6.35;;;20.50;99.90;;;;;;6165724;23;20000;-92
2022/06/11 00:52:44;;;;;;;7.07;5.18;;;20.40;99.90;;;;;;6165536;23;20100;-93
2022/06/11 00:55:23;;;;;;;9.07;5.85;;;20.40;99.90;;;;;;6165611;23;20009;-93
2022/06/11 00:57:51;;;;;;;8.80;6.00;;;20.40;99.90;;;;;;6165726;23;20335;-93
2022/06/11 01:00:41;;;;;;;13.45;6.30;;;20.40;99.90;;;;;;6165456;23;20019;-93
2022/06/11 01:03:11;;;;;;;11.15;6.72;;;20.40;99.90;;;;;;6165222;23;20015;-93
2022/06/11 01:05:42;;;;;;;9.85;6.10;;;20.30;99.90;;;;;;6165588;23;20036;-92
2022/06/11 01:08:24;;;;;;;12.95;6.60;;;20.40;99.90;;;;;;6165649;23;20035;-93
2022/06/11 01:11:42;;;;;;;12.32;6.95;;;20.30;99.90;;;;;;6165320;23;20095;-92
2022/06/11 01:14:59;;;;;;;15.70;6.57;;;20.40;99.90;;;;;;6105904;23;20454;-94
2022/06/11 01:18:08;;;;;;;7.93;5.80;;;20.40;99.90;;;;;;6048884;23;20063;-92
2022/06/11 01:20:49;;;;;;;11.32;5.93;;;20.40;99.90;;;;;;6045322;23;20011;-92
2022/06/11 01:23:34;;;;;;;9.65;6.18;;;20.40;99.90;;;;;;6025546;23;20078;-92
2022/06/11 01:26:22;;;;;;;8.68;6.22;;;20.40;99.90;;;;;;6050374;23;20032;-93
2022/06/11 01:29:19;;;;;;;10.77;6.00;;;20.30;99.90;;;;;;6073948;23;20011;-91
2022/06/11 01:32:18;;;;;;;11.90;7.18;;;20.30;99.90;;;;;;6049904;23;20010;-92
2022/06/11 01:35:01;;;;;;;17.05;7.15;;;20.30;99.90;;;;;;6073821;23;20034;-92
2022/06/11 01:37:43;;;;;;;13.55;6.82;;;20.30;99.90;;;;;;6050233;23;20011;-92
2022/06/11 01:40:42;;;;;;;8.52;6.85;;;20.30;99.90;;;;;;6073298;23;20010;-92
2022/06/11 01:43:32;;;;;;;9.63;7.40;;;20.40;99.90;;;;;;6049812;23;20465;-92
2022/06/11 01:46:02;;;;;;;8.65;6.90;;;20.40;99.90;;;;;;6073524;23;20038;-92
2022/06/11 01:48:29;;;;;;;12.02;7.78;;;20.40;99.90;;;;;;6049705;23;20010;-93
2022/06/11 01:51:18;;;;;;;15.25;7.57;;;20.40;99.90;;;;;;6049436;23;20014;-92
2022/06/11 01:54:08;;;;;;;12.00;7.32;;;20.40;99.90;;;;;;6174444;23;20016;-93
2022/06/11 01:57:06;;;;;;;9.85;7.40;;;20.30;99.90;;;;;;6191964;23;20032;-92
2022/06/11 01:59:59;;;;;;;16.80;8.40;;;20.40;99.90;;;;;;6191713;23;20016;-92
2022/06/11 02:02:57;;;;;;;19.75;8.38;;;20.40;99.90;;;;;;6191698;23;20101;-92
2022/06/11 02:06:01;;;;;;;10.48;7.82;;;20.50;99.90;;;;;;6191470;23;20024;-91
2022/06/11 02:09:08;;;;;;;12.43;8.77;;;20.50;99.90;;;;;;6191596;23;20005;-93
2022/06/11 02:11:46;;;;;;;15.18;8.43;;;20.50;99.90;;;;;;6191899;23;20015;-92
2022/06/11 02:14:31;;;;;;;14.90;8.00;;;20.40;99.90;;;;;;6196522;23;20004;-92
2022/06/11 02:17:18;;;;;;;13.13;8.00;;;20.50;99.90;;;;;;6196805;23;20019;-93
2022/06/11 02:20:03;;;;;;;13.32;7.95;;;20.50;99.90;;;;;;6196790;23;20015;-92
2022/06/11 02:22:50;;;;;;;14.85;8.02;;;20.50;99.90;;;;;;6196525;23;20008;-92
2022/06/11 02:25:38;;;;;;;10.93;7.22;;;20.60;99.90;;;;;;6166659;23;20091;-91
2022/06/11 02:28:11;;;;;;;12.63;6.88;;;20.60;99.90;;;;;;6166995;23;20009;-92
2022/06/11 02:30:42;;;;;;;13.52;7.05;;;20.70;99.90;;;;;;6166654;23;20013;-93
2022/06/11 02:33:12;;;;;;;15.15;7.80;;;20.70;99.90;;;;;;6166572;23;20015;-92
2022/06/11 02:35:50;;;;;;;11.10;7.38;;;20.70;99.90;;;;;;6166380;23;20008;-91
2022/06/11 02:38:25;;;;;;;8.90;6.55;;;20.70;99.90;;;;;;6166371;23;20008;-93
2022/06/11 02:40:58;;;;;;;11.98;6.72;;;20.70;99.90;;;;;;6166633;23;20012;-92
2022/06/11 02:43:25;;;;;;;9.35;7.10;;;20.70;99.90;;;;;;6166244;23;20316;-92
2022/06/11 02:45:51;;;;;;;10.90;6.50;;;20.70;99.90;;;;;;6166432;23;20063;-92
2022/06/11 02:48:19;;;;;;;15.43;7.88;;;20.70;99.90;;;;;;6166403;23;20143;-93
2022/06/11 02:50:48;;;;;;;18.80;8.07;;;20.70;99.90;;;;;;6166014;23;20411;-94
2022/06/11 02:53:16;;;;;;;15.10;7.32;;;20.70;99.90;;;;;;6166344;23;20084;-93
2022/06/11 02:55:46;;;;;;;13.38;7.63;;;20.70;99.90;;;;;;6166268;23;20004;-92
2022/06/11 02:58:14;;;;;;;15.43;7.43;;;20.70;99.90;;;;;;6166588;23;20009;-92
2022/06/11 03:00:47;;;;;;;12.35;8.18;;;20.70;99.90;;;;;;6167357;23;20312;-92
2022/06/11 03:03:14;;;;;;;19.52;8.90;;;20.60;99.90;;;;;;6166177;23;20008;-92
2022/06/11 03:05:41;;;;;;;14.05;8.15;;;20.60;99.90;;;;;;6166263;23;20012;-90
2022/06/11 03:08:11;;;;;;;12.38;8.63;;;20.60;99.90;;;;;;6166182;23;20008;-91
2022/06/11 03:10:41;;;;;;;15.05;9.25;;;20.70;99.90;;;;;;6166352;23;20431;-91
2022/06/11 03:13:08;;;;;;;19.08;9.50;;;20.70;99.90;;;;;;6166095;23;20008;-90
2022/06/11 03:15:36;;;;;;;19.10;9.65;;;20.70;99.90;;;;;;6166537;23;20079;-89
2022/06/11 03:18:02;;;;;;;14.48;9.57;;;20.70;99.90;;;;;;6166188;23;20059;-93
2022/06/11 03:20:31;;;;;;;21.67;10.50;;;20.70;99.90;;;;;;6166110;23;20430;-93
2022/06/11 03:22:58;;;;;;;16.52;10.75;;;20.70;99.90;;;;;;6167028;23;20004;-92
2022/06/11 03:25:48;;;;;;;18.55;11.00;;;20.70;99.90;;;;;;6220780;23;20020;-92
2022/06/11 03:28:20;;;;;;;16.48;11.35;;;20.70;99.90;;;;;;6198516;23;20093;-92
2022/06/11 03:30:47;;;;;;;19.65;12.02;;;20.80;99.90;;;;;;6220614;23;20008;-92
2022/06/11 03:33:14;;;;;;;22.67;11.63;;;20.80;99.90;;;;;;6196075;23;20433;-92
2022/06/11 03:35:43;;;;;;;21.50;13.15;;;20.80;99.90;;;;;;6220730;23;20020;-92
2022/06/11 03:38:10;;;;;;;21.15;13.60;;;20.80;99.90;;;;;;6220666;23;20035;-93
2022/06/11 03:40:38;;;;;;;23.90;13.63;;;20.80;99.90;;;;;;6220872;23;20008;-93
2022/06/11 03:43:06;;;;;;;25.33;15.02;;;20.80;99.90;;;;;;6220860;23;20088;-91
2022/06/11 03:45:34;;;;;;;28.35;14.23;;;20.90;99.90;;;;;;6220744;23;20016;-92
2022/06/11 03:48:01;;;;;;;23.83;14.43;;;20.90;99.90;;;;;;6221112;23;20058;-91
2022/06/11 03:50:32;;;;;;;29.50;15.40;;;20.90;99.90;;;;;;6220813;23;20008;-92
2022/06/11 03:53:00;;;;;;;29.58;14.95;;;20.90;99.90;;;;;;6220827;23;20044;-92
2022/06/11 03:55:28;;;;;;;22.85;13.52;;;20.90;99.90;;;;;;6220687;23;20083;-93
2022/06/11 03:57:55;;;;;;;25.63;14.48;;;20.90;99.90;;;;;;6195801;23;20015;-93
2022/06/11 04:03:30;;;;;;;24.27;14.50;;;21.10;99.90;;;;;;6220680;23;20341;-93
2022/06/11 04:05:57;;;;;;;22.45;14.38;;;21.20;99.90;;;;;;6220547;22;20027;-93
2022/06/11 04:08:25;;;;;;;29.83;14.93;;;21.30;99.90;;;;;;6220698;23;20035;-92
2022/06/11 04:10:56;;;;;;;20.00;13.55;;;21.40;99.90;;;;;;6220733;23;20362;-92
2022/06/11 04:13:27;;;;;;;19.08;12.63;;;21.50;99.90;;;;;;6220607;23;20087;-92
2022/06/11 04:15:59;;;;;;;21.58;13.00;;;21.60;99.90;;;;;;6220528;23;20034;-93
2022/06/11 04:18:40;;;;;;;22.85;12.55;;;21.70;99.90;;;;;;6220514;23;20008;-93
2022/06/11 04:21:10;;;;;;;23.40;12.02;;;21.70;99.90;;;;;;6220413;23;20012;-94
2022/06/11 04:23:39;;;;;;;25.13;13.75;;;21.80;99.90;;;;;;6220044;23;20016;-93
2022/06/11 04:26:10;;;;;;;20.20;11.95;;;21.80;99.90;;;;;;6220552;23;20016;-94
2022/06/11 04:28:38;;;;;;;20.90;11.88;;;21.80;99.90;;;;;;6220726;23;20341;-93
2022/06/11 04:31:07;;;;;;;17.27;10.93;;;22.00;99.90;;;;;;6220430;23;20004;-93
2022/06/11 04:33:35;;;;;;;16.80;10.90;;;22.30;99.90;;;;;;6195372;23;20032;-93
2022/06/11 04:36:20;;;;;;;19.27;10.50;;;22.70;99.90;;;;;;6220439;23;20024;-94
2022/06/11 04:38:47;;;;;;;15.10;8.13;;;23.60;99.90;;;;;;6220984;23;20062;-93
2022/06/11 04:41:13;;;;;;;16.33;8.73;;;24.80;99.90;;;;;;6195529;23;20338;-93
2022/06/11 04:43:41;;;;;;;18.60;7.55;;;26.20;99.90;;;;;;6195599;23;20016;-92
2022/06/11 04:46:09;;;;;;;10.40;6.95;;;27.20;99.90;;;;;;6195431;23;20419;-94
2022/06/11 04:48:36;;;;;;;13.65;6.82;;;27.90;99.90;;;;;;6197099;23;20008;-94
2022/06/11 04:51:04;;;;;;;11.73;6.95;;;28.60;99.90;;;;;;6197590;23;20016;-93
2022/06/11 04:53:31;;;;;;;13.85;6.72;;;29.20;99.90;;;;;;6197372;23;20081;-93
2022/06/11 04:55:57;;;;;;;14.20;7.32;;;29.50;99.90;;;;;;6197329;23;20023;-93
2022/06/11 04:58:24;;;;;;;8.30;6.03;;;29.70;99.90;;;;;;6197438;23;20004;-94
2022/06/11 05:00:51;;;;;;;12.35;5.72;;;29.80;99.90;;;;;;6198255;22;20019;-93
2022/06/11 05:03:21;;;;;;;12.70;6.13;;;29.90;99.90;;;;;;6197086;23;20496;-93
2022/06/11 05:05:47;;;;;;;9.30;6.18;;;30.10;99.90;;;;;;6197250;23;20091;-92
2022/06/11 05:08:15;;;;;;;15.35;5.43;;;29.30;99.90;;;;;;6199862;23;20055;-93
2022/06/11 05:10:44;;;;;;;12.55;5.45;;;28.70;99.90;;;;;;6201505;23;20004;-92
2022/06/11 05:13:11;;;;;;;9.68;5.15;;;28.60;99.90;;;;;;6200263;23;20458;-92
2022/06/11 05:16:05;;;;;;;17.45;5.25;;;28.60;99.90;;;;;;6200084;23;20087;-93
2022/06/11 05:18:33;;;;;;;11.52;5.10;;;29.10;99.90;;;;;;6200163;23;20004;-92
2022/06/11 05:21:00;;;;;;;12.43;5.18;;;29.70;99.90;;;;;;6200600;23;20071;-94
2022/06/11 05:23:26;;;;;;;12.07;4.95;;;29.60;99.90;;;;;;6200155;23;20465;-92
2022/06/11 05:25:53;;;;;;;10.30;5.72;;;29.90;99.90;;;;;;6200270;23;20012;-93
2022/06/11 05:28:23;;;;;;;13.00;5.25;;;29.50;99.90;;;;;;6200338;23;20332;-92
2022/06/11 05:30:52;;;;;;;9.50;4.85;;;29.30;99.90;;;;;;6200132;23;20137;-93
2022/06/11 05:33:21;;;;;;;14.82;4.60;;;29.10;99.90;;;;;;6200575;23;20004;-92
2022/06/11 05:35:49;;;;;;;10.10;5.13;;;29.40;99.90;;;;;;6200097;23;20015;-93
2022/06/11 05:38:20;;;;;;;14.07;4.88;;;29.30;99.90;;;;;;6199535;23;20004;-92
2022/06/11 05:40:49;;;;;;;12.02;4.70;;;29.10;99.90;;;;;;6200372;23;20019;-92
2022/06/11 05:43:16;;;;;;;11.80;5.40;;;29.10;99.90;;;;;;6200452;23;20020;-92
2022/06/11 05:45:53;;;;;;;9.45;4.72;;;29.20;99.90;;;;;;6199914;23;20083;-93
2022/06/11 05:48:25;;;;;;;10.25;5.00;;;29.30;99.90;;;;;;6200816;23;20015;-92
2022/06/11 05:50:55;;;;;;;12.57;5.25;;;29.60;99.90;;;;;;6200641;23;20019;-92
2022/06/11 05:53:25;;;;;;;16.08;4.28;;;29.30;99.90;;;;;;6199668;23;20007;-92
2022/06/11 05:55:55;;;;;;;17.00;5.10;;;29.20;99.90;;;;;;6199292;23;20020;-93
2022/06/11 05:58:25;;;;;;;12.27;4.07;;;29.20;99.90;;;;;;6199803;23;20008;-93
2022/06/11 06:01:31;;;;;;;8.55;4.32;;;28.90;99.90;;;;;;6201701;23;20022;-91
2022/06/11 06:03:58;;;;;;;9.80;4.45;;;28.80;99.90;;;;;;6199644;23;20004;-92
2022/06/11 06:06:24;;;;;;;11.55;4.78;;;29.00;99.90;;;;;;6200151;23;20012;-92
2022/06/11 06:08:54;;;;;;;15.95;4.95;;;29.10;99.90;;;;;;6199373;23;20030;-92
2022/06/11 06:11:20;;;;;;;11.52;5.70;;;29.40;99.90;;;;;;6198811;23;20008;-92
2022/06/11 06:13:47;;;;;;;11.63;5.32;;;29.50;99.90;;;;;;6199297;23;20004;-92
2022/06/11 06:16:21;;;;;;;11.07;4.32;;;29.20;99.90;;;;;;6199110;23;20000;-92
2022/06/11 06:18:48;;;;;;;;;;;29.00;99.90;;;;;;6198629;23;20015;-92
2022/06/11 06:21:22;;;;;;;10.25;4.90;;;29.30;99.90;;;;;;6197825;23;19899;-93
2022/06/11 06:23:49;;;;;;;10.75;4.55;;;29.30;99.90;;;;;;6184627;23;20088;-93
2022/06/11 06:26:19;;;;;;;7.47;4.10;;;28.90;99.90;;;;;;6165300;23;20086;-92
2022/06/11 06:28:50;;;;;;;11.32;4.75;;;28.90;99.90;;;;;;6169292;23;20017;-94
2022/06/11 06:31:17;;;;;;;9.50;4.30;;;29.20;99.90;;;;;;6170518;23;20490;-94
2022/06/11 06:33:47;;;;;;;6.05;4.40;;;29.50;99.90;;;;;;6171311;23;20000;-92
2022/06/11 06:36:15;;;;;;;7.78;4.25;;;29.70;99.90;;;;;;6177860;23;20005;-93
2022/06/11 06:38:44;;;;;;;8.85;4.20;;;29.50;99.90;;;;;;6222027;23;20363;-94
2022/06/11 06:41:13;;;;;;;6.03;4.32;;;29.50;99.90;;;;;;6177014;23;20056;-93
2022/06/11 06:43:43;;;;;;;8.75;4.50;;;29.30;99.90;;;;;;6182679;23;20001;-93
2022/06/11 06:46:11;;;;;;;9.98;4.07;;;28.60;99.90;;;;;;6177409;23;20016;-92
2022/06/11 06:48:38;;;;;;;5.53;3.88;;;28.40;99.90;;;;;;6172075;23;20419;-93
2022/06/11 06:51:05;;;;;;;11.13;4.40;;;29.20;99.90;;;;;;6171729;23;20008;-94
2022/06/11 06:53:44;;;;;;;7.40;4.55;;;29.80;99.90;;;;;;6165364;23;20043;-92
2022/06/11 06:56:14;;;;;;;6.97;4.30;;;30.20;99.90;;;;;;6151779;23;20024;-93
2022/06/11 07:02:04;;;;;;;6.95;4.50;;;30.10;99.90;;;;;;6071715;23;20038;-92
2022/06/11 07:04:31;;;;;;;8.43;5.15;;;30.10;99.90;;;;;;6048797;23;20523;-92
2022/06/11 07:07:19;;;;;;;7.20;4.40;;;30.20;99.90;;;;;;6048268;23;20093;-92
2022/06/11 07:10:25;;;;;;;7.57;4.18;;;30.30;99.90;;;;;;6049957;23;20026;-92
2022/06/11 07:13:56;;;;;;;10.70;4.88;;;29.90;99.90;;;;;;5935141;24;20016;-93
2022/06/11 07:16:47;;;;;;;;;;;;;;;;;;;;;
2022/06/11 07:20:22;;;;;;;6.32;4.47;;;29.80;99.90;;;;;;5957480;24;20016;-93
2022/06/11 07:23:24;;;;;;;7.93;4.75;;;30.30;99.90;;;;;;5960753;24;20015;-93
2022/06/11 07:25:55;;;;;;;7.15;4.90;;;30.10;99.90;;;;;;5934111;24;20025;-92
2022/06/11 07:28:31;;;;;;;9.88;4.78;;;30.30;99.90;;;;;;5904923;24;20358;-92
2022/06/11 07:31:03;;;;;;;4.90;4.30;;;30.10;99.90;;;;;;5927606;24;20045;-93
2022/06/11 07:33:56;;;;;;;9.50;4.82;;;29.60;99.90;;;;;;5906080;23;20036;-93
2022/06/11 07:36:37;;;;;;;6.10;4.55;;;29.60;99.90;;;;;;5927605;24;20108;-92
2022/06/11 07:39:24;;;;;;;5.80;4.80;;;29.50;99.90;;;;;;5957927;24;20023;-90
2022/06/11 07:41:51;;;;;;;6.13;4.90;;;29.70;99.90;;;;;;5959306;24;20047;-92
2022/06/11 07:44:26;;;;;;;6.30;4.35;;;29.40;99.90;;;;;;6054244;23;20014;-92
2022/06/11 07:46:53;;;;;;;6.10;4.20;;;29.30;99.90;;;;;;6077310;23;20313;-91
2022/06/11 07:49:20;;;;;;;6.30;4.45;;;29.30;99.90;;;;;;6077909;23;20076;-93
2022/06/11 07:51:59;;;;;;;7.47;4.45;;;29.60;99.90;;;;;;6077609;23;20101;-92
2022/06/11 07:54:36;;;;;;;7.45;3.97;;;29.50;99.90;;;;;;6077290;23;20142;-92
2022/06/11 07:57:04;;;;;;;7.40;4.90;;;29.70;99.90;;;;;;6153426;23;20044;-92
2022/06/11 07:59:31;;;;;;;10.88;4.78;;;30.00;99.90;;;;;;6165879;23;20476;-91
2022/06/11 08:01:57;;;;;;;7.82;4.97;;;30.60;99.90;;;;;;6165689;23;20026;-92
2022/06/11 08:04:24;;;;;;;10.77;4.82;;;30.50;99.90;;;;;;6165921;23;20013;-91
2022/06/11 08:06:50;;;;;;;6.18;4.43;;;30.10;99.90;;;;;;6166331;23;20074;-92
2022/06/11 08:09:17;;;;;;;13.50;5.18;;;29.70;99.90;;;;;;6166525;23;20012;-91
2022/06/11 08:11:46;;;;;;;7.65;4.20;;;29.60;99.90;;;;;;6166894;23;20066;-89
2022/06/11 08:14:12;;;;;;;7.45;4.93;;;29.60;99.90;;;;;;6166019;23;20001;-89
2022/06/11 08:16:39;;;;;;;10.10;4.55;;;30.10;99.90;;;;;;6165729;23;20525;-89
2022/06/11 08:19:07;;;;;;;9.00;4.93;;;29.80;99.90;;;;;;6166046;23;20021;-88
2022/06/11 08:21:34;;;;;;;10.73;4.63;;;29.20;99.90;;;;;;6166149;23;20015;-89
2022/06/11 08:24:00;;;;;;;7.70;4.78;;;28.90;99.90;;;;;;6203528;23;20016;-88
2022/06/11 08:26:27;;;;;;;6.32;4.70;;;29.20;99.90;;;;;;6221037;23;20031;-87
2022/06/11 08:28:53;;;;;;;6.30;4.30;;;28.90;99.90;;;;;;6197992;23;20008;-88
2022/06/11 08:31:20;;;;;;;8.57;4.18;;;28.80;99.90;;;;;;6198494;23;20024;-88
2022/06/11 08:33:46;;;;;;;8.77;4.78;;;29.00;99.90;;;;;;6229109;23;20011;-88
2022/06/11 08:36:13;;;;;;;7.20;4.43;;;29.00;99.90;;;;;;6199873;23;20180;-87
2022/06/11 08:38:39;;;;;;;5.97;4.32;;;28.80;99.90;;;;;;6200084;23;20004;-88
2022/06/11 08:41:18;;;;;;;8.35;4.03;;;29.00;99.90;;;;;;6198410;23;20063;-89
2022/06/11 08:44:09;;;;;;;7.97;4.28;;;28.90;99.90;;;;;;6201605;23;20012;-89
2022/06/11 08:46:40;;;;;;;5.72;3.63;;;29.50;99.90;;;;;;6198404;23;20009;-88
2022/06/11 08:49:20;;;;;;;7.15;4.63;;;29.50;99.90;;;;;;6197652;23;20095;-90
2022/06/11 08:52:17;;;;;;;8.68;4.20;;;29.20;99.90;;;;;;6197791;23;20323;-88
2022/06/11 08:54:46;;;;;;;7.18;3.40;;;29.20;99.90;;;;;;6200817;23;20008;-89
2022/06/11 08:57:16;;;;;;;7.97;4.13;;;29.10;99.90;;;;;;6201315;23;20000;-88
2022/06/11 09:00:05;;;;;;;7.28;4.55;;;29.00;99.90;;;;;;6202150;23;20008;-89
2022/06/11 09:02:55;;;;;;;5.32;3.80;;;29.00;99.90;;;;;;6201965;23;20004;-88
2022/06/11 09:05:31;;;;;;;5.93;4.07;;;29.00;99.90;;;;;;6226621;23;20020;-88
2022/06/11 09:08:27;;;;;;;9.48;4.85;;;29.00;99.90;;;;;;6199998;23;20008;-88
2022/06/11 09:11:11;;;;;;;10.25;3.97;;;28.80;99.90;;;;;;6200751;23;20421;-89
2022/06/11 09:14:16;;;;;;;9.40;4.30;;;29.00;99.90;;;;;;6202107;23;20008;-87
2022/06/11 09:17:20;;;;;;;4.65;4.18;;;29.10;99.90;;;;;;6171620;23;20004;-88
2022/06/11 09:20:20;;;;;;;6.88;4.32;;;28.80;99.90;;;;;;6200345;23;20005;-89
2022/06/11 09:23:15;;;;;;;6.47;4.80;;;29.20;99.90;;;;;;6201975;23;20035;-89
2022/06/11 09:25:41;;;;;;;;;;;29.00;99.90;;;;;;6153511;23;20023;-89
2022/06/11 09:28:38;;;;;;;8.25;5.00;;;28.80;99.90;;;;;;6202982;23;19903;-89
2022/06/11 09:31:34;;;;;;;6.93;4.95;;;28.70;99.90;;;;;;6204065;23;20011;-91
2022/06/11 09:34:15;;;;;;;6.55;4.57;;;28.60;99.90;;;;;;6205211;23;20008;-90
2022/06/11 09:36:58;;;;;;;5.47;4.88;;;28.70;99.90;;;;;;6203253;23;20016;-91
2022/06/11 09:39:37;;;;;;;7.07;5.65;;;28.50;99.90;;;;;;6203326;23;20008;-89
2022/06/11 09:42:25;;;;;;;8.82;5.45;;;28.60;99.90;;;;;;6231555;23;20015;-91
2022/06/11 09:45:09;;;;;;;5.05;4.55;;;28.60;99.90;;;;;;6209008;23;20035;-93
2022/06/11 09:47:59;;;;;;;6.28;5.13;;;28.60;99.90;;;;;;6207762;23;20011;-92
2022/06/11 09:50:42;;;;;;;6.78;4.57;;;28.30;99.90;;;;;;6155190;23;20019;-92
2022/06/11 09:54:02;;;;;;;6.03;4.38;;;28.30;99.90;;;;;;6232900;23;20016;-92
2022/06/11 09:56:37;;;;;;;6.20;4.85;;;28.10;99.90;;;;;;6111052;23;20010;-91
2022/06/11 09:59:26;;;;;;;8.50;4.75;;;28.10;99.90;;;;;;6087497;23;20033;-91
2022/06/11 10:02:36;;;;;;;7.15;4.30;;;28.10;99.90;;;;;;6076932;23;20015;-88
2022/06/11 10:05:02;;;;;;;5.72;4.80;;;28.20;99.90;;;;;;6100396;23;20105;-87
2022/06/11 10:07:35;;;;;;;6.05;4.63;;;28.20;99.90;;;;;;6076360;23;20010;-87
2022/06/11 10:10:13;;;;;;;4.72;4.18;;;28.10;99.90;;;;;;6051677;23;20014;-87
2022/06/11 10:12:50;;;;;;;7.93;5.43;;;28.00;99.90;;;;;;6077289;23;20006;-87
2022/06/11 10:15:32;;;;;;;10.05;5.68;;;27.70;99.90;;;;;;6051535;23;20006;-86
2022/06/11 10:18:34;;;;;;;7.22;4.85;;;27.90;99.90;;;;;;6075372;23;20011;-86
2022/06/11 10:21:10;;;;;;;7.50;5.15;;;27.90;99.90;;;;;;6050437;23;20462;-85
2022/06/11 10:23:45;;;;;;;7.20;4.60;;;28.20;99.90;;;;;;6051635;23;20045;-87
2022/06/11 10:26:29;;;;;;;10.40;5.05;;;28.00;99.90;;;;;;6057413;23;20018;-87
2022/06/11 10:29:16;;;;;;;10.38;4.55;;;28.10;99.90;;;;;;6081485;23;20066;-88
2022/06/11 10:32:06;;;;;;;5.68;4.90;;;28.10;99.90;;;;;;6063033;23;20014;-88
2022/06/11 10:34:41;;;;;;;6.72;5.15;;;28.00;99.90;;;;;;6204018;23;20004;-88
2022/06/11 10:37:20;;;;;;;5.20;4.70;;;28.00;99.90;;;;;;6205191;23;20008;-87
2022/06/11 10:40:29;;;;;;;6.68;5.18;;;27.90;99.90;;;;;;6204710;23;20008;-87
2022/06/11 10:43:03;;;;;;;10.35;5.63;;;28.00;99.90;;;;;;6204872;23;20008;-87
2022/06/11 10:45:29;;;;;;;;;;;28.10;99.90;;;;;;6230120;23;20018;-87
2022/06/11 10:47:59;;;;;;;6.25;5.65;;;28.20;99.90;;;;;;6205211;23;19971;-87
2022/06/11 10:50:28;;;;;;;6.70;5.40;;;28.30;99.90;;;;;;6203029;23;20012;-90
2022/06/11 10:53:02;;;;;;;7.00;6.30;;;28.40;99.90;;;;;;6196340;23;20004;-88
2022/06/11 10:55:40;;;;;;;9.88;6.55;;;28.20;99.90;;;;;;6196152;23;20445;-87
2022/06/11 10:58:58;;;;;;;7.07;5.47;;;28.40;99.90;;;;;;6196323;23;20015;-89
2022/06/11 11:01:33;;;;;;;6.07;5.20;;;28.50;99.90;;;;;;6156141;23;20102;-90
2022/06/11 11:04:17;;;;;;;7.85;5.43;;;28.50;99.90;;;;;;6196157;23;20008;-90
2022/06/11 11:06:44;;;;;;;5.90;5.50;;;28.10;99.90;;;;;;6196354;23;20354;-91
2022/06/11 11:09:21;;;;;;;6.30;5.78;;;28.40;99.90;;;;;;6195431;23;20012;-92
2022/06/11 11:11:51;;;;;;;6.18;5.53;;;28.50;99.90;;;;;;6195123;23;20035;-91
2022/06/11 11:14:39;;;;;;;6.35;5.40;;;28.20;99.90;;;;;;6195139;23;20004;-92
2022/06/11 11:17:27;;;;;;;5.90;5.28;;;28.30;99.90;;;;;;6194902;23;20074;-92
2022/06/11 11:20:32;;;;;;;5.53;5.10;;;28.50;99.90;;;;;;6194431;23;20011;-92
2022/06/11 11:23:22;;;;;;;5.43;4.93;;;28.40;99.90;;;;;;6194551;23;20332;-93
2022/06/11 11:25:51;;;;;;;8.40;5.95;;;28.30;99.90;;;;;;6194601;23;20023;-92
2022/06/11 11:28:38;;;;;;;6.22;5.70;;;28.60;99.90;;;;;;6194714;23;20004;-92
2022/06/11 11:31:16;;;;;;;6.30;5.70;;;28.50;99.90;;;;;;6194604;23;20008;-92
2022/06/11 11:34:11;;;;;;;6.50;5.85;;;28.70;99.90;;;;;;6194901;23;20015;-90
2022/06/11 11:36:38;;;;;;;6.60;5.90;;;28.60;99.90;;;;;;6184785;23;20418;-91
2022/06/11 11:39:17;;;;;;;5.75;5.35;;;28.60;99.90;;;;;;6194447;23;20030;-91
2022/06/11 11:42:09;;;;;;;6.85;5.80;;;28.60;99.90;;;;;;6194691;23;20336;-91
2022/06/11 11:44:49;;;;;;;7.10;5.82;;;28.80;99.90;;;;;;6195091;23;20094;-90
2022/06/11 11:47:35;;;;;;;7.10;4.88;;;28.60;99.90;;;;;;6195058;23;20008;-90
2022/06/11 11:50:21;;;;;;;6.82;4.55;;;28.50;99.90;;;;;;6194531;23;20012;-91
2022/06/11 11:52:55;;;;;;;8.93;4.30;;;28.50;99.90;;;;;;6194373;23;20373;-91
2022/06/11 11:55:28;;;;;;;6.22;3.90;;;28.30;99.90;;;;;;6194946;23;20345;-91
2022/06/11 11:58:19;;;;;;;7.03;4.57;;;28.10;99.90;;;;;;6194225;23;20015;-90
2022/06/11 12:00:58;;;;;;;8.25;4.63;;;28.30;99.90;;;;;;6194579;23;20012;-89
2022/06/11 12:03:52;;;;;;;8.80;5.18;;;28.10;99.90;;;;;;6196071;23;20051;-89
2022/06/11 12:06:42;;;;;;;6.68;4.72;;;28.30;99.90;;;;;;6195815;23;20084;-90
2022/06/11 12:09:23;;;;;;;7.40;4.03;;;28.40;99.90;;;;;;6195732;23;20011;-90
2022/06/11 12:12:21;;;;;;;6.80;5.05;;;28.10;99.90;;;;;;6195818;23;20442;-91
2022/06/11 12:14:50;;;;;;;8.98;4.07;;;28.30;99.90;;;;;;6072325;23;20015;-92
2022/06/11 12:17:59;;;;;;;5.53;4.70;;;28.10;99.90;;;;;;6072334;23;20460;-89
2022/06/11 12:20:31;;;;;;;6.80;4.88;;;28.00;99.90;;;;;;5963560;23;20354;-86
2022/06/11 12:23:04;;;;;;;8.13;4.47;;;27.90;99.90;;;;;;5963694;23;20012;-86
2022/06/11 12:25:54;;;;;;;5.88;4.28;;;27.90;99.90;;;;;;6010361;23;20024;-89
2022/06/11 12:28:26;;;;;;;5.25;4.32;;;28.10;99.90;;;;;;6010267;23;20016;-88
2022/06/11 12:30:53;;;;;;;5.00;4.45;;;28.00;99.90;;;;;;6010219;23;20023;-88
2022/06/11 12:33:20;;;;;;;5.22;4.20;;;28.00;99.90;;;;;;6010398;23;20014;-89
2022/06/11 12:36:03;;;;;;;6.60;4.93;;;27.90;99.90;;;;;;6010254;23;20012;-87
2022/06/11 12:39:04;;;;;;;6.68;5.38;;;28.00;99.90;;;;;;6002855;23;20437;-88
2022/06/11 12:42:09;;;;;;;6.35;5.40;;;28.20;99.90;;;;;;5987541;23;20091;-88
2022/06/11 12:44:44;;;;;;;5.25;4.85;;;28.30;99.90;;;;;;5986969;23;20110;-89
2022/06/11 12:47:36;;;;;;;7.88;4.75;;;28.00;99.90;;;;;;5986787;23;20016;-88
2022/06/11 12:50:18;;;;;;;12.43;4.47;;;28.00;99.90;;;;;;5963593;23;20016;-90
2022/06/11 12:53:10;;;;;;;7.30;4.50;;;28.10;99.90;;;;;;6071789;23;20444;-88
2022/06/11 12:56:10;;;;;;;5.22;4.38;;;28.30;99.90;;;;;;6076742;23;20010;-88
2022/06/11 12:58:55;;;;;;;5.97;4.38;;;28.20;99.90;;;;;;6157764;23;20505;-87
2022/06/11 13:01:46;;;;;;;5.30;4.80;;;28.30;99.90;;;;;;6190332;23;20036;-89
2022/06/11 13:04:43;;;;;;;5.47;4.85;;;28.20;99.90;;;;;;6190391;23;20080;-90
2022/06/11 13:07:35;;;;;;;6.32;4.68;;;27.90;99.90;;;;;;6189699;23;20012;-90
2022/06/11 13:10:17;;;;;;;5.10;4.70;;;27.60;99.90;;;;;;6166045;23;20087;-89
2022/06/11 13:12:58;;;;;;;5.10;4.60;;;27.90;99.90;;;;;;6167256;23;20059;-89
2022/06/11 13:15:27;;;;;;;5.22;4.68;;;28.00;99.90;;;;;;6166366;23;20012;-90
2022/06/11 13:18:14;;;;;;;6.55;4.57;;;28.10;99.90;;;;;;6166804;23;20385;-88
2022/06/11 13:20:55;;;;;;;5.85;5.10;;;28.30;99.90;;;;;;6166337;23;20016;-88
2022/06/11 13:23:36;;;;;;;5.50;4.95;;;28.30;99.90;;;;;;6171695;23;20012;-89
2022/06/11 13:26:19;;;;;;;5.78;4.75;;;27.90;99.90;;;;;;6196869;23;20016;-89
2022/06/11 13:29:23;;;;;;;5.67;4.53;;;27.80;99.90;;;;;;6196901;23;20448;-92
2022/06/11 13:32:17;;;;;;;6.25;4.90;;;27.70;99.90;;;;;;6199359;23;20008;-91
2022/06/11 13:34:57;;;;;;;6.28;5.15;;;28.10;99.90;;;;;;6197588;23;20008;-90
2022/06/11 13:37:51;;;;;;;5.88;5.25;;;28.20;99.90;;;;;;6197015;23;20409;-91
2022/06/11 13:40:34;;;;;;;7.60;5.63;;;28.40;99.90;;;;;;6222065;23;20028;-90
2022/06/11 13:43:19;;;;;;;11.02;5.75;;;28.10;99.90;;;;;;6197819;23;20016;-88
2022/06/11 13:45:58;;;;;;;9.60;5.43;;;28.00;99.90;;;;;;6197156;23;20016;-89